Time;durP1;ratioP1;P1;durP2;ratioP2;P2;SDS_P1;SDS_P2;PMS_P1;PMS_P2;Temp;Humidity;BMP_temperature;BMP_pressure;BME280_temperature;BME280_humidity;BME280_pressure;Samples;Min_cycle;Max_cycle;Signal;HPM_P1;HPM_P2
2021/08/04 00:01:36;;;;;;;4.13;2.33;;;17.50;96.00;;;;;;5059694;28;20411;-81
2021/08/04 00:04:02;;;;;;;3.93;2.10;;;17.40;96.00;;;;;;5059286;28;20192;-81
2021/08/04 00:06:28;;;;;;;7.20;2.27;;;17.30;96.60;;;;;;5059335;28;20207;-81
2021/08/04 00:08:54;;;;;;;4.20;2.63;;;17.30;96.10;;;;;;5059029;28;20407;-81
2021/08/04 00:11:21;;;;;;;3.35;2.20;;;17.30;96.80;;;;;;5058669;28;20651;-81
2021/08/04 00:13:46;;;;;;;4.65;2.65;;;17.20;97.00;;;;;;5058701;28;20261;-81
2021/08/04 00:16:12;;;;;;;6.37;2.53;;;17.20;97.30;;;;;;5058501;28;20208;-81
2021/08/04 00:18:38;;;;;;;3.40;2.40;;;17.30;97.80;;;;;;5058770;28;20207;-81
2021/08/04 00:21:04;;;;;;;2.97;2.10;;;17.20;98.00;;;;;;5058411;28;20460;-81
2021/08/04 00:23:30;;;;;;;2.97;1.80;;;17.20;98.10;;;;;;5058001;28;20196;-81
2021/08/04 00:25:57;;;;;;;4.70;2.38;;;17.10;98.20;;;;;;5058000;28;20199;-79
2021/08/04 00:28:23;;;;;;;3.03;2.20;;;17.20;97.80;;;;;;5058808;28;20202;-81
2021/08/04 00:30:48;;;;;;;4.67;2.30;;;17.10;97.60;;;;;;5058240;28;20169;-81
2021/08/04 00:33:14;;;;;;;3.30;1.93;;;17.10;97.70;;;;;;5058425;28;20426;-81
2021/08/04 00:35:40;;;;;;;3.70;2.40;;;17.10;97.60;;;;;;5058326;28;20168;-81
2021/08/04 00:38:13;;;;;;;4.40;2.67;;;17.10;97.30;;;;;;5058649;28;20465;-81
2021/08/04 00:40:40;;;;;;;5.82;2.95;;;17.00;97.80;;;;;;5058157;28;20204;-81
2021/08/04 00:43:07;;;;;;;3.17;2.35;;;17.10;97.40;;;;;;5058959;28;20192;-81
2021/08/04 00:45:34;;;;;;;4.03;2.80;;;17.10;98.30;;;;;;5058398;28;20173;-81
2021/08/04 00:48:00;;;;;;;5.20;2.42;;;17.10;97.80;;;;;;5058013;28;20686;-81
2021/08/04 00:50:26;;;;;;;4.80;2.58;;;17.00;97.90;;;;;;5057240;28;20207;-82
2021/08/04 00:52:52;;;;;;;6.15;2.38;;;17.00;98.30;;;;;;5056792;28;20192;-81
2021/08/04 00:55:17;;;;;;;2.93;1.90;;;17.00;98.30;;;;;;5056779;28;20654;-82
2021/08/04 00:57:43;;;;;;;4.77;2.40;;;17.00;97.90;;;;;;5056884;28;20514;-81
2021/08/04 01:00:11;;;;;;;2.83;2.00;;;17.00;97.90;;;;;;5056608;28;20217;-82
2021/08/04 01:02:48;;;;;;;5.90;2.58;;;17.00;98.10;;;;;;5056582;28;20215;-81
2021/08/04 01:05:24;;;;;;;5.82;2.60;;;17.00;97.70;;;;;;5056337;28;20662;-81
2021/08/04 01:08:04;;;;;;;7.78;2.30;;;17.00;97.90;;;;;;5056324;28;20223;-81
2021/08/04 01:10:35;;;;;;;5.60;2.88;;;17.00;98.30;;;;;;5056372;28;20259;-81
2021/08/04 01:13:12;;;;;;;7.78;2.53;;;17.00;97.30;;;;;;5056368;28;20196;-81
2021/08/04 01:15:51;;;;;;;6.97;2.97;;;17.00;97.80;;;;;;5056015;28;20164;-81
2021/08/04 01:18:22;;;;;;;4.18;2.40;;;17.00;97.90;;;;;;5056151;28;20192;-81
2021/08/04 01:20:47;;;;;;;3.85;1.60;;;17.00;97.60;;;;;;5056461;28;20199;-81
2021/08/04 01:23:52;;;;;;;7.43;2.53;;;17.00;97.50;;;;;;5056294;28;20553;-82
2021/08/04 01:26:39;;;;;;;2.97;2.30;;;17.00;97.20;;;;;;5056246;28;20445;-82
2021/08/04 01:29:08;;;;;;;4.15;2.47;;;17.00;97.30;;;;;;5056318;28;20157;-82
2021/08/04 01:31:36;;;;;;;4.50;2.40;;;17.00;97.60;;;;;;5056397;28;20169;-81
2021/08/04 01:34:03;;;;;;;4.50;2.30;;;17.00;97.90;;;;;;5055986;28;20199;-81
2021/08/04 01:36:30;;;;;;;6.35;2.20;;;17.00;97.60;;;;;;5055752;28;20179;-81
2021/08/04 01:39:00;;;;;;;3.90;2.15;;;17.00;97.90;;;;;;5055954;28;20176;-81
2021/08/04 01:41:26;;;;;;;6.63;2.70;;;17.00;97.50;;;;;;5056067;28;20172;-81
2021/08/04 01:43:53;;;;;;;6.00;2.25;;;16.90;97.70;;;;;;5056264;28;20204;-81
2021/08/04 01:46:21;;;;;;;5.45;2.10;;;17.00;97.50;;;;;;5055926;28;20217;-82
2021/08/04 01:48:48;;;;;;;4.07;1.80;;;17.00;97.80;;;;;;5056598;28;20208;-81
2021/08/04 01:51:14;;;;;;;5.45;2.70;;;17.00;97.60;;;;;;5056416;28;20168;-82
2021/08/04 01:53:41;;;;;;;10.10;2.78;;;17.00;97.30;;;;;;5055871;28;20293;-81
2021/08/04 01:56:08;;;;;;;3.53;2.35;;;17.10;97.00;;;;;;5056017;28;20169;-81
2021/08/04 01:58:34;;;;;;;3.88;2.20;;;17.10;97.40;;;;;;5073177;28;20208;-81
2021/08/04 02:01:00;;;;;;;5.55;2.17;;;17.00;97.40;;;;;;5056251;28;20176;-82
2021/08/04 02:03:26;;;;;;;4.67;2.57;;;17.00;97.80;;;;;;5055908;28;20603;-81
2021/08/04 02:05:52;;;;;;;9.52;2.17;;;17.00;97.80;;;;;;5055671;28;20193;-82
2021/08/04 02:08:43;;;;;;;4.63;2.55;;;17.00;97.70;;;;;;5056064;28;20192;-81
2021/08/04 02:11:18;;;;;;;4.43;2.20;;;16.90;97.60;;;;;;5059819;28;20759;-81
2021/08/04 02:14:00;;;;;;;3.80;2.00;;;16.90;97.40;;;;;;5060539;28;20188;-81
2021/08/04 02:16:40;;;;;;;4.07;2.30;;;17.00;97.30;;;;;;5060405;28;20165;-81
2021/08/04 02:19:14;;;;;;;6.57;3.38;;;16.90;97.20;;;;;;5060309;28;20194;-81
2021/08/04 02:21:43;;;;;;;4.30;2.40;;;17.00;97.50;;;;;;5060309;28;20196;-82
2021/08/04 02:24:15;;;;;;;3.22;1.90;;;17.00;97.20;;;;;;5060280;28;20227;-81
2021/08/04 02:26:43;;;;;;;5.32;2.40;;;17.00;97.10;;;;;;5060106;28;20211;-82
2021/08/04 02:29:11;;;;;;;4.10;2.50;;;17.00;97.30;;;;;;5059858;28;20179;-81
2021/08/04 02:31:38;;;;;;;4.20;2.30;;;16.90;97.50;;;;;;5060356;28;20192;-82
2021/08/04 02:34:04;;;;;;;4.28;2.33;;;17.00;97.20;;;;;;5060096;28;20195;-82
2021/08/04 02:36:29;;;;;;;5.87;2.50;;;16.90;96.90;;;;;;5059705;28;20267;-82
2021/08/04 02:39:01;;;;;;;6.33;2.60;;;16.90;96.70;;;;;;5059555;28;20413;-81
2021/08/04 02:41:36;;;;;;;4.00;1.90;;;17.00;96.60;;;;;;5059833;28;20434;-81
2021/08/04 02:44:03;;;;;;;10.32;2.78;;;17.00;97.30;;;;;;5059570;28;20196;-81
2021/08/04 02:46:29;;;;;;;6.40;2.88;;;17.00;97.40;;;;;;5059106;28;20245;-81
2021/08/04 02:48:57;;;;;;;7.22;2.60;;;17.00;97.40;;;;;;5059282;28;20229;-81
2021/08/04 02:51:24;;;;;;;6.90;2.50;;;17.00;97.10;;;;;;5059154;28;20168;-81
2021/08/04 02:53:57;;;;;;;8.90;2.10;;;16.90;97.10;;;;;;5059260;28;20184;-81
2021/08/04 02:56:24;;;;;;;4.80;2.38;;;16.90;97.10;;;;;;5059337;28;20165;-81
2021/08/04 02:58:50;;;;;;;6.68;2.25;;;17.00;96.90;;;;;;5058924;28;20667;-81
2021/08/04 03:01:16;;;;;;;6.32;2.88;;;16.90;96.80;;;;;;5059521;28;20172;-81
2021/08/04 03:03:41;;;;;;;5.50;2.50;;;16.90;97.00;;;;;;5058784;28;20287;-81
2021/08/04 03:06:07;;;;;;;3.60;2.33;;;16.90;97.40;;;;;;5077573;28;20486;-81
2021/08/04 03:08:33;;;;;;;5.57;2.80;;;16.80;97.40;;;;;;5059382;28;20411;-81
2021/08/04 03:10:59;;;;;;;6.40;2.67;;;16.80;97.40;;;;;;5059130;28;20183;-81
2021/08/04 03:13:27;;;;;;;5.15;2.63;;;16.80;97.00;;;;;;5059260;28;20254;-81
2021/08/04 03:15:54;;;;;;;6.20;3.47;;;16.80;96.90;;;;;;5059056;28;20193;-82
2021/08/04 03:18:19;;;;;;;5.57;2.72;;;16.80;96.80;;;;;;5059358;28;20187;-82
2021/08/04 03:20:45;;;;;;;4.30;2.33;;;16.80;96.90;;;;;;5058381;28;20177;-81
2021/08/04 03:23:11;;;;;;;5.60;2.80;;;16.80;96.80;;;;;;5058400;28;20246;-81
2021/08/04 03:25:37;;;;;;;4.40;2.13;;;16.80;97.00;;;;;;5058913;28;20172;-81
2021/08/04 03:28:03;;;;;;;2.90;2.20;;;16.80;96.50;;;;;;5058989;28;20403;-81
2021/08/04 03:30:28;;;;;;;2.30;1.77;;;16.80;96.50;;;;;;5058756;28;20255;-81
2021/08/04 03:32:54;;;;;;;10.80;2.77;;;16.80;96.50;;;;;;5059074;28;20431;-81
2021/08/04 03:35:20;;;;;;;9.37;2.70;;;16.80;96.10;;;;;;5058985;28;20410;-82
2021/08/04 03:37:46;;;;;;;4.97;2.20;;;16.80;96.50;;;;;;5058831;28;20226;-81
2021/08/04 03:40:12;;;;;;;4.97;3.08;;;16.80;96.70;;;;;;5058715;28;20410;-81
2021/08/04 03:42:38;;;;;;;5.95;2.20;;;16.80;96.50;;;;;;5058943;28;20222;-81
2021/08/04 03:45:06;;;;;;;5.57;2.63;;;16.80;96.30;;;;;;5058715;28;20176;-81
2021/08/04 03:47:31;;;;;;;4.63;2.35;;;16.70;96.50;;;;;;5076687;28;20211;-81
2021/08/04 03:49:57;;;;;;;5.60;2.73;;;16.70;96.10;;;;;;5058536;28;20564;-82
2021/08/04 03:52:23;;;;;;;8.90;2.40;;;16.70;96.50;;;;;;5058356;28;20164;-81
2021/08/04 03:54:49;;;;;;;5.70;2.90;;;16.70;96.30;;;;;;5059035;28;20172;-82
2021/08/04 03:57:15;;;;;;;6.13;2.77;;;16.70;96.70;;;;;;5058577;28;20423;-81
2021/08/04 03:59:41;;;;;;;4.78;2.60;;;16.70;96.70;;;;;;5058845;28;20438;-81
2021/08/04 04:02:07;;;;;;;5.03;2.57;;;16.70;96.90;;;;;;5058430;28;20539;-81
2021/08/04 04:04:32;;;;;;;5.50;2.77;;;16.80;96.50;;;;;;5058317;28;20427;-81
2021/08/04 04:06:58;;;;;;;4.40;2.47;;;16.70;96.50;;;;;;5058135;28;20257;-81
2021/08/04 04:09:24;;;;;;;4.63;2.43;;;16.70;96.30;;;;;;5058367;28;20411;-81
2021/08/04 04:11:50;;;;;;;3.38;2.10;;;16.70;96.00;;;;;;5058477;28;20177;-82
2021/08/04 04:14:16;;;;;;;5.57;2.33;;;16.70;95.90;;;;;;5058749;28;20684;-82
2021/08/04 04:16:41;;;;;;;4.87;2.50;;;16.70;96.20;;;;;;5057827;28;20426;-82
2021/08/04 04:19:08;;;;;;;8.23;2.50;;;16.60;96.10;;;;;;5058329;28;20180;-82
2021/08/04 04:21:34;;;;;;;3.92;2.40;;;16.60;96.00;;;;;;5058591;28;20620;-81
2021/08/04 04:24:00;;;;;;;4.55;2.80;;;16.60;96.20;;;;;;5058139;28;20200;-81
2021/08/04 04:26:26;;;;;;;3.10;2.47;;;16.60;96.10;;;;;;5058621;28;20215;-82
2021/08/04 04:28:52;;;;;;;5.63;2.10;;;16.60;95.70;;;;;;5058512;28;20676;-82
2021/08/04 04:31:18;;;;;;;3.63;2.20;;;16.60;95.90;;;;;;5058542;28;20173;-82
2021/08/04 04:33:43;;;;;;;4.20;2.50;;;16.60;96.20;;;;;;5058245;28;20192;-81
2021/08/04 04:36:09;;;;;;;6.40;2.40;;;16.50;96.30;;;;;;5057908;28;20522;-82
2021/08/04 04:38:35;;;;;;;5.77;2.77;;;16.50;96.30;;;;;;5058009;28;20266;-82
2021/08/04 04:41:01;;;;;;;7.68;2.45;;;16.50;96.40;;;;;;5058845;28;20198;-82
2021/08/04 04:43:27;;;;;;;5.03;2.83;;;16.50;96.40;;;;;;5058976;28;20290;-82
2021/08/04 04:45:52;;;;;;;3.60;2.47;;;16.50;96.90;;;;;;5058567;28;20169;-82
2021/08/04 04:48:18;;;;;;;4.20;2.47;;;16.50;97.20;;;;;;5058240;28;20434;-82
2021/08/04 04:50:44;;;;;;;4.50;2.60;;;16.50;97.00;;;;;;5057943;28;20259;-82
2021/08/04 04:53:10;;;;;;;5.53;2.80;;;16.50;96.90;;;;;;5057530;28;21033;-82
2021/08/04 04:55:36;;;;;;;5.83;2.80;;;16.50;97.20;;;;;;5057868;28;20192;-82
2021/08/04 04:58:02;;;;;;;10.90;2.80;;;16.50;97.10;;;;;;5058102;28;20536;-82
2021/08/04 05:00:28;;;;;;;2.63;2.05;;;16.50;97.30;;;;;;5059837;28;20173;-82
2021/08/04 05:02:54;;;;;;;6.53;2.77;;;16.60;97.40;;;;;;5057699;28;20559;-82
2021/08/04 05:05:19;;;;;;;6.35;3.03;;;16.60;97.40;;;;;;5057888;28;20483;-82
2021/08/04 05:07:45;;;;;;;8.03;2.90;;;16.60;97.20;;;;;;5057555;28;20255;-82
2021/08/04 05:10:11;;;;;;;4.30;2.60;;;16.60;97.30;;;;;;5057695;28;20263;-82
2021/08/04 05:12:37;;;;;;;5.43;2.80;;;16.70;97.10;;;;;;5057609;28;21208;-81
2021/08/04 05:15:05;;;;;;;6.23;2.70;;;16.80;97.20;;;;;;5057184;28;20172;-82
2021/08/04 05:17:31;;;;;;;6.03;3.53;;;16.80;97.20;;;;;;5057082;28;20467;-82
2021/08/04 05:19:56;;;;;;;6.60;2.88;;;16.90;97.10;;;;;;5057875;28;20242;-82
2021/08/04 05:22:22;;;;;;;9.70;3.90;;;16.90;96.50;;;;;;5057247;28;20172;-83
2021/08/04 05:24:48;;;;;;;8.67;2.63;;;16.90;95.90;;;;;;5057545;28;20176;-82
2021/08/04 05:27:14;;;;;;;6.00;3.00;;;16.90;96.30;;;;;;5057035;28;20457;-82
2021/08/04 05:29:39;;;;;;;6.27;3.13;;;16.90;96.30;;;;;;5057189;28;20226;-82
2021/08/04 05:32:06;;;;;;;3.83;2.73;;;17.00;96.10;;;;;;5057474;28;20510;-81
2021/08/04 05:34:32;;;;;;;7.10;2.83;;;17.00;96.50;;;;;;5057667;28;21133;-82
2021/08/04 05:36:58;;;;;;;7.80;3.00;;;17.10;96.60;;;;;;5057045;28;20180;-81
2021/08/04 05:39:23;;;;;;;3.90;2.77;;;17.10;96.30;;;;;;5057071;28;20420;-81
2021/08/04 05:41:49;;;;;;;4.50;2.50;;;17.10;95.50;;;;;;5057148;28;20200;-82
2021/08/04 05:44:15;;;;;;;4.27;2.10;;;17.20;95.70;;;;;;5056404;28;20203;-82
2021/08/04 05:46:41;;;;;;;5.30;3.00;;;17.30;95.90;;;;;;5057442;28;20211;-82
2021/08/04 05:49:06;;;;;;;5.57;2.87;;;17.40;95.50;;;;;;5131399;22;20493;-82
2021/08/04 05:51:32;;;;;;;7.73;2.40;;;17.40;94.00;;;;;;5059944;28;20315;-82
2021/08/04 05:53:58;;;;;;;3.37;2.33;;;17.40;94.10;;;;;;5045762;28;20223;-83
2021/08/04 05:56:23;;;;;;;5.80;2.80;;;17.50;94.60;;;;;;5039745;28;20186;-82
2021/08/04 05:58:49;;;;;;;5.70;2.60;;;17.50;93.90;;;;;;5039870;28;20199;-82
2021/08/04 06:01:15;;;;;;;6.00;2.67;;;17.70;94.80;;;;;;5040202;28;20176;-82
2021/08/04 06:03:41;;;;;;;3.93;2.40;;;17.70;93.90;;;;;;5039138;28;20204;-82
2021/08/04 06:06:07;;;;;;;10.93;3.10;;;17.80;92.10;;;;;;5039603;28;20459;-82
2021/08/04 06:08:33;;;;;;;6.53;2.03;;;17.90;92.30;;;;;;5039132;28;20795;-82
2021/08/04 06:10:58;;;;;;;12.20;2.63;;;17.90;92.20;;;;;;5039630;28;20189;-82
2021/08/04 06:13:24;;;;;;;5.00;2.20;;;17.90;92.10;;;;;;5039067;28;20193;-83
2021/08/04 06:15:53;;;;;;;8.77;3.73;;;18.00;91.60;;;;;;5039978;28;20241;-82
2021/08/04 06:18:19;;;;;;;4.18;2.95;;;18.10;91.50;;;;;;5039666;28;20458;-82
2021/08/04 06:20:45;;;;;;;6.32;3.35;;;18.10;91.10;;;;;;5038824;28;20181;-83
2021/08/04 06:23:10;;;;;;;6.43;2.70;;;18.10;91.40;;;;;;5038744;28;20276;-83
2021/08/04 06:25:36;;;;;;;8.63;2.60;;;18.10;91.50;;;;;;5039654;28;20506;-82
2021/08/04 06:28:02;;;;;;;3.30;2.23;;;18.10;89.90;;;;;;5039259;28;20423;-83
2021/08/04 06:30:28;;;;;;;7.00;3.37;;;18.20;90.80;;;;;;5056957;28;20165;-82
2021/08/04 06:32:54;;;;;;;6.53;2.63;;;18.30;90.60;;;;;;5039249;28;20485;-82
2021/08/04 06:35:19;;;;;;;4.87;2.40;;;18.40;90.20;;;;;;5038797;28;20419;-82
2021/08/04 06:37:45;;;;;;;6.87;3.13;;;18.50;89.60;;;;;;5039353;28;20174;-82
2021/08/04 06:40:12;;;;;;;4.93;2.47;;;18.60;89.80;;;;;;5040277;28;20510;-82
2021/08/04 06:42:38;;;;;;;5.55;2.38;;;18.70;89.60;;;;;;5039911;28;20201;-82
2021/08/04 06:45:04;;;;;;;4.23;2.30;;;18.80;87.40;;;;;;5040194;28;20238;-82
2021/08/04 06:47:29;;;;;;;3.88;2.22;;;18.80;86.70;;;;;;5040131;28;20506;-82
2021/08/04 06:49:55;;;;;;;12.40;2.60;;;18.80;86.70;;;;;;5040493;28;20796;-82
2021/08/04 06:52:21;;;;;;;5.23;2.50;;;18.80;88.40;;;;;;5039806;28;20519;-82
2021/08/04 06:54:47;;;;;;;4.97;2.30;;;18.90;87.40;;;;;;5039555;28;20172;-82
2021/08/04 06:57:13;;;;;;;5.00;2.37;;;18.90;86.40;;;;;;5043263;28;20419;-82
2021/08/04 06:59:38;;;;;;;7.60;2.40;;;18.90;86.30;;;;;;5042938;28;20200;-82
2021/08/04 07:02:04;;;;;;;4.33;2.20;;;18.90;87.10;;;;;;5042298;28;20174;-82
2021/08/04 07:04:30;;;;;;;4.13;2.40;;;19.00;88.10;;;;;;5042463;28;20291;-83
2021/08/04 07:06:58;;;;;;;4.73;2.10;;;19.20;86.60;;;;;;5042013;28;20288;-82
2021/08/04 07:09:24;;;;;;;6.57;2.15;;;19.40;84.40;;;;;;5041824;28;20415;-83
2021/08/04 07:11:51;;;;;;;3.20;1.80;;;19.50;85.10;;;;;;5042125;28;20169;-82
2021/08/04 07:14:17;;;;;;;3.70;2.25;;;19.50;83.70;;;;;;5041239;28;20442;-83
2021/08/04 07:16:44;;;;;;;4.68;2.05;;;19.60;81.90;;;;;;5043424;28;20169;-83
2021/08/04 07:19:10;;;;;;;5.25;2.88;;;19.60;84.90;;;;;;5044664;28;20210;-83
2021/08/04 07:21:37;;;;;;;7.20;2.47;;;19.70;82.80;;;;;;5040964;28;20668;-83
2021/08/04 07:24:04;;;;;;;4.30;1.95;;;19.80;82.80;;;;;;5040869;28;20193;-82
2021/08/04 07:26:30;;;;;;;4.40;2.03;;;20.00;81.30;;;;;;5041666;28;20223;-83
2021/08/04 07:28:56;;;;;;;6.27;2.30;;;20.10;82.80;;;;;;5058650;28;20169;-83
2021/08/04 07:31:23;;;;;;;1.90;1.52;;;20.20;80.60;;;;;;5040877;28;20181;-83
2021/08/04 07:33:49;;;;;;;4.78;2.33;;;20.40;79.10;;;;;;5044100;28;20193;-84
2021/08/04 07:36:15;;;;;;;4.13;2.13;;;20.60;77.40;;;;;;5041405;28;20572;-83
2021/08/04 07:38:40;;;;;;;3.53;2.00;;;20.70;72.70;;;;;;5042704;28;20438;-82
2021/08/04 07:41:06;;;;;;;5.40;2.43;;;20.60;72.00;;;;;;5041466;28;20172;-82
2021/08/04 07:43:32;;;;;;;2.43;1.80;;;20.60;74.20;;;;;;5041594;28;20986;-82
2021/08/04 07:45:58;;;;;;;3.63;2.17;;;20.80;72.70;;;;;;5046440;28;20176;-82
2021/08/04 07:48:24;;;;;;;4.40;1.93;;;20.80;73.90;;;;;;5041797;28;20801;-82
2021/08/04 07:50:50;;;;;;;4.35;2.63;;;20.90;76.30;;;;;;5041944;28;20416;-82
2021/08/04 07:53:16;;;;;;;5.43;2.40;;;21.00;74.20;;;;;;5041934;28;20243;-82
2021/08/04 07:55:42;;;;;;;5.50;2.30;;;21.00;73.80;;;;;;5041233;28;20169;-82
2021/08/04 07:58:07;;;;;;;4.50;2.33;;;21.00;73.50;;;;;;5041683;28;20169;-82
2021/08/04 08:00:33;;;;;;;3.47;2.40;;;21.00;73.40;;;;;;5041705;28;20264;-81
2021/08/04 08:02:59;;;;;;;5.60;2.73;;;21.00;73.80;;;;;;5059405;28;20461;-82
2021/08/04 08:05:25;;;;;;;6.10;2.50;;;21.00;74.20;;;;;;5042658;28;20423;-82
2021/08/04 08:07:51;;;;;;;4.33;2.60;;;20.80;72.60;;;;;;5040964;28;20455;-82
2021/08/04 08:10:18;;;;;;;3.63;2.20;;;20.60;73.00;;;;;;5040530;28;20408;-82
2021/08/04 08:12:45;;;;;;;3.50;2.10;;;20.50;73.10;;;;;;5040844;28;20223;-82
2021/08/04 08:15:12;;;;;;;4.63;2.90;;;20.40;73.10;;;;;;5040382;28;20212;-83
2021/08/04 08:17:39;;;;;;;10.20;2.10;;;20.30;73.70;;;;;;5040430;28;20173;-83
2021/08/04 08:20:06;;;;;;;4.45;2.00;;;20.20;74.40;;;;;;5041048;28;20186;-83
2021/08/04 08:22:32;;;;;;;4.95;3.03;;;20.30;73.70;;;;;;5041291;28;20173;-83
2021/08/04 08:24:58;;;;;;;8.63;3.25;;;20.50;73.50;;;;;;5041103;28;20177;-83
2021/08/04 08:27:24;;;;;;;3.63;2.22;;;20.70;73.80;;;;;;5040596;28;20608;-84
2021/08/04 08:29:50;;;;;;;6.77;2.90;;;20.90;72.40;;;;;;5039954;28;20227;-83
2021/08/04 08:32:16;;;;;;;4.53;2.50;;;20.90;71.00;;;;;;5039668;28;20176;-83
2021/08/04 08:34:42;;;;;;;4.95;2.33;;;21.10;69.90;;;;;;5041198;28;20641;-82
2021/08/04 08:37:08;;;;;;;6.35;2.78;;;20.90;69.90;;;;;;5041434;28;20710;-83
2021/08/04 08:39:34;;;;;;;4.70;2.60;;;20.90;72.30;;;;;;5040399;28;20239;-83
2021/08/04 08:42:01;;;;;;;10.30;2.63;;;20.80;70.30;;;;;;5044372;28;20411;-83
2021/08/04 08:44:28;;;;;;;4.65;2.42;;;20.80;71.40;;;;;;5041168;28;20434;-82
2021/08/04 08:46:54;;;;;;;3.08;1.95;;;20.90;71.30;;;;;;5058970;28;20197;-84
2021/08/04 08:49:27;;;;;;;4.70;2.28;;;20.90;72.30;;;;;;5041172;28;20275;-83
2021/08/04 08:51:53;;;;;;;5.70;3.22;;;21.10;72.30;;;;;;5040840;28;20173;-83
2021/08/04 08:54:19;;;;;;;5.85;2.90;;;21.20;71.20;;;;;;5040313;28;20215;-83
2021/08/04 08:56:45;;;;;;;3.73;2.37;;;21.30;69.90;;;;;;5039841;28;20752;-84
2021/08/04 08:59:14;;;;;;;4.30;2.60;;;21.10;70.20;;;;;;5040433;28;20806;-83
2021/08/04 09:01:40;;;;;;;13.25;2.40;;;21.20;69.50;;;;;;5039688;28;20239;-83
2021/08/04 09:04:10;;;;;;;5.13;2.33;;;21.30;69.90;;;;;;5039454;28;20201;-83
2021/08/04 09:06:52;;;;;;;7.93;3.08;;;21.30;69.50;;;;;;5039508;28;20466;-83
2021/08/04 09:09:36;;;;;;;6.20;3.17;;;21.50;72.70;;;;;;5039038;28;20177;-83
2021/08/04 09:12:02;;;;;;;5.60;2.80;;;21.60;68.70;;;;;;5041089;28;20640;-83
2021/08/04 09:14:33;;;;;;;4.83;1.90;;;21.70;70.30;;;;;;5039267;28;20189;-84
2021/08/04 09:17:02;;;;;;;4.95;2.95;;;21.80;69.90;;;;;;5039523;28;20260;-83
2021/08/04 09:19:28;;;;;;;8.77;2.80;;;21.90;69.60;;;;;;5038114;28;20173;-83
2021/08/04 09:22:11;;;;;;;4.57;3.08;;;22.10;66.90;;;;;;5039726;28;20184;-83
2021/08/04 09:24:57;;;;;;;3.97;2.67;;;21.80;65.10;;;;;;5039470;28;20275;-83
2021/08/04 09:27:44;;;;;;;5.00;3.00;;;21.60;66.90;;;;;;5038935;28;20764;-83
2021/08/04 09:30:16;;;;;;;5.50;3.17;;;21.60;68.10;;;;;;5038797;28;20169;-83
2021/08/04 09:32:43;;;;;;;4.10;2.17;;;21.70;68.40;;;;;;5038875;28;20259;-83
2021/08/04 09:35:15;;;;;;;3.97;2.00;;;21.50;67.10;;;;;;5039155;28;20196;-83
2021/08/04 09:37:41;;;;;;;3.90;2.67;;;21.40;69.40;;;;;;5039579;28;20180;-83
2021/08/04 09:40:11;;;;;;;6.75;2.97;;;21.60;68.00;;;;;;5039050;28;20173;-83
2021/08/04 09:42:54;;;;;;;4.22;1.95;;;21.60;67.70;;;;;;5039517;28;20177;-83
2021/08/04 09:45:36;;;;;;;3.92;2.58;;;21.60;67.10;;;;;;5038692;28;20169;-83
2021/08/04 09:48:08;;;;;;;7.07;2.70;;;21.60;68.50;;;;;;5039189;28;20567;-83
2021/08/04 09:50:54;;;;;;;4.22;2.30;;;21.70;69.20;;;;;;5038791;28;20169;-83
2021/08/04 09:53:28;;;;;;;3.50;2.20;;;21.80;67.30;;;;;;5038393;28;20211;-83
2021/08/04 09:56:09;;;;;;;4.53;2.10;;;21.80;66.90;;;;;;5039421;28;20818;-83
2021/08/04 09:58:38;;;;;;;4.18;2.22;;;21.80;67.10;;;;;;5038775;28;20197;-83
2021/08/04 10:01:04;;;;;;;10.65;2.67;;;21.90;66.40;;;;;;5038840;28;20169;-83
2021/08/04 10:03:31;;;;;;;3.80;2.00;;;21.90;67.40;;;;;;5038902;28;20200;-83
2021/08/04 10:05:57;;;;;;;3.60;2.35;;;21.80;67.10;;;;;;5039918;28;20173;-83
2021/08/04 10:08:23;;;;;;;8.30;2.67;;;21.80;66.00;;;;;;5039688;28;20177;-83
2021/08/04 10:10:54;;;;;;;4.70;2.97;;;21.60;66.30;;;;;;5039310;28;20423;-83
2021/08/04 10:13:26;;;;;;;5.20;2.50;;;21.50;67.30;;;;;;5038994;28;20209;-83
2021/08/04 10:16:01;;;;;;;3.67;2.25;;;21.50;67.70;;;;;;5038220;28;20161;-83
2021/08/04 10:18:31;;;;;;;2.80;1.70;;;21.50;68.80;;;;;;5039065;28;20177;-83
2021/08/04 10:21:11;;;;;;;2.70;1.80;;;21.60;68.70;;;;;;5038153;28;20173;-83
2021/08/04 10:23:38;;;;;;;3.65;1.95;;;21.80;67.60;;;;;;5038475;28;20207;-83
2021/08/04 10:26:10;;;;;;;3.67;2.17;;;22.00;66.60;;;;;;5038437;28;20303;-83
2021/08/04 10:28:36;;;;;;;3.72;2.38;;;22.20;70.20;;;;;;5039366;28;20172;-83
2021/08/04 10:31:02;;;;;;;3.15;2.22;;;22.50;65.90;;;;;;5058231;28;20219;-83
2021/08/04 10:33:29;;;;;;;3.35;1.90;;;22.60;67.10;;;;;;5042837;28;20661;-83
2021/08/04 10:36:03;;;;;;;4.22;1.90;;;22.80;63.90;;;;;;5043280;28;20189;-83
2021/08/04 10:38:29;;;;;;;2.60;1.85;;;22.70;64.50;;;;;;5042262;28;20165;-83
2021/08/04 10:41:18;;;;;;;6.03;2.10;;;22.90;63.90;;;;;;5043107;28;20664;-83
2021/08/04 10:43:50;;;;;;;3.33;2.13;;;23.10;64.20;;;;;;5042478;28;20185;-84
2021/08/04 10:46:31;;;;;;;3.63;2.10;;;23.20;63.30;;;;;;5042262;28;20193;-84
2021/08/04 10:49:08;;;;;;;6.00;1.98;;;23.10;64.20;;;;;;5041532;28;20189;-84
2021/08/04 10:51:35;;;;;;;4.90;2.20;;;23.20;65.50;;;;;;5042049;28;20168;-84
2021/08/04 10:54:01;;;;;;;5.53;2.80;;;23.30;64.20;;;;;;5042332;28;20221;-84
2021/08/04 10:56:50;;;;;;;4.03;2.50;;;23.50;64.20;;;;;;5042160;28;20173;-84
2021/08/04 10:59:32;;;;;;;5.68;2.03;;;23.60;61.20;;;;;;5036295;28;20699;-84
2021/08/04 11:02:04;;;;;;;4.00;2.35;;;23.60;61.40;;;;;;5041803;28;20173;-84
2021/08/04 11:04:30;;;;;;;3.55;2.47;;;23.60;62.00;;;;;;5042464;28;20189;-84
2021/08/04 11:07:13;;;;;;;2.57;2.00;;;23.50;62.00;;;;;;5041995;28;20203;-84
2021/08/04 11:09:51;;;;;;;13.73;2.75;;;23.30;61.90;;;;;;5042269;28;20223;-84
2021/08/04 11:12:18;;;;;;;3.33;1.70;;;23.30;60.80;;;;;;5041988;28;20177;-84
2021/08/04 11:14:55;;;;;;;3.10;2.00;;;23.20;61.90;;;;;;5041700;28;20184;-83
2021/08/04 11:17:25;;;;;;;6.40;2.40;;;23.30;64.90;;;;;;5041927;28;20165;-84
2021/08/04 11:19:56;;;;;;;4.93;1.90;;;23.50;61.00;;;;;;5041601;28;20725;-84
2021/08/04 11:22:30;;;;;;;4.03;1.80;;;23.60;62.80;;;;;;5041818;28;20286;-84
2021/08/04 11:25:08;;;;;;;6.53;2.55;;;23.60;61.70;;;;;;5042143;28;20168;-84
2021/08/04 11:27:46;;;;;;;4.03;2.20;;;23.70;62.30;;;;;;5042272;28;20189;-84
2021/08/04 11:30:14;;;;;;;4.20;2.53;;;23.60;62.60;;;;;;5042065;28;20173;-84
2021/08/04 11:32:40;;;;;;;5.43;1.83;;;23.70;61.30;;;;;;5041545;28;20195;-84
2021/08/04 11:35:17;;;;;;;4.50;1.70;;;23.70;62.00;;;;;;5041653;28;20216;-84
2021/08/04 11:37:45;;;;;;;4.90;2.30;;;23.90;60.20;;;;;;5043589;28;20454;-85
2021/08/04 11:40:12;;;;;;;8.75;2.20;;;24.00;60.10;;;;;;5042880;28;20272;-84
2021/08/04 11:42:38;;;;;;;3.25;1.80;;;24.10;60.00;;;;;;5040390;28;20604;-84
2021/08/04 11:45:10;;;;;;;3.35;1.90;;;24.20;60.80;;;;;;5041445;28;20180;-83
2021/08/04 11:47:37;;;;;;;3.90;2.05;;;24.20;58.10;;;;;;5040859;28;20193;-83
2021/08/04 11:50:07;;;;;;;7.05;2.55;;;24.20;61.00;;;;;;5039646;28;20267;-84
2021/08/04 11:52:34;;;;;;;4.70;2.03;;;24.20;58.80;;;;;;5038914;28;20179;-84
2021/08/04 11:55:10;;;;;;;5.10;2.22;;;24.10;60.80;;;;;;5038224;28;20656;-85
2021/08/04 11:57:46;;;;;;;4.10;1.83;;;24.20;61.30;;;;;;5038730;28;20173;-85
2021/08/04 12:00:12;;;;;;;4.75;1.95;;;24.40;61.30;;;;;;5038405;28;20180;-85
2021/08/04 12:02:39;;;;;;;4.80;2.00;;;24.60;59.20;;;;;;5038323;28;20201;-85
2021/08/04 12:05:07;;;;;;;2.95;1.75;;;24.80;57.50;;;;;;5038428;28;20271;-85
2021/08/04 12:07:34;;;;;;;3.40;2.13;;;24.80;60.00;;;;;;5038148;28;20235;-85
2021/08/04 12:10:01;;;;;;;3.20;2.17;;;24.70;57.70;;;;;;5038102;28;20200;-85
2021/08/04 12:12:34;;;;;;;4.20;2.20;;;24.70;58.70;;;;;;5038107;28;20677;-85
2021/08/04 12:15:00;;;;;;;2.88;2.00;;;24.70;62.10;;;;;;5038368;28;20157;-85
2021/08/04 12:17:32;;;;;;;5.13;2.28;;;24.80;63.40;;;;;;5038233;28;20173;-85
2021/08/04 12:20:21;;;;;;;4.35;2.10;;;24.90;60.20;;;;;;5038232;28;20189;-85
2021/08/04 12:23:10;;;;;;;4.65;1.90;;;24.90;57.40;;;;;;5037961;28;20239;-85
2021/08/04 12:25:40;;;;;;;2.95;1.92;;;25.00;58.40;;;;;;5037543;28;20268;-84
2021/08/04 12:28:07;;;;;;;3.78;1.55;;;25.00;57.50;;;;;;5037636;28;20200;-85
2021/08/04 12:30:35;;;;;;;3.13;1.80;;;25.00;58.40;;;;;;5037924;28;20230;-85
2021/08/04 12:33:13;;;;;;;16.10;2.08;;;25.00;58.10;;;;;;5038018;28;20268;-85
2021/08/04 12:39:03;;;;;;;2.72;1.90;;;24.70;62.10;;;;;;5056100;28;20203;-85
2021/08/04 12:41:29;;;;;;;3.55;2.08;;;24.80;60.10;;;;;;5037748;28;20188;-85
2021/08/04 12:43:55;;;;;;;7.80;2.23;;;24.70;59.20;;;;;;5037586;28;20201;-85
2021/08/04 12:46:30;;;;;;;2.35;1.42;;;24.60;60.50;;;;;;5037350;28;20459;-85
2021/08/04 12:48:57;;;;;;;3.60;1.60;;;24.50;61.40;;;;;;5037480;28;20196;-85
2021/08/04 12:51:23;;;;;;;4.20;2.38;;;24.50;60.90;;;;;;5038200;28;20699;-83
2021/08/04 12:54:06;;;;;;;3.85;1.58;;;24.50;61.70;;;;;;5038413;28;20665;-83
2021/08/04 12:56:36;;;;;;;3.20;1.95;;;24.60;60.20;;;;;;5039506;28;20227;-83